Time;durP1;ratioP1;P1;durP2;ratioP2;P2;SDS_P1;SDS_P2;PMS_P1;PMS_P2;Temp;Humidity;BMP_temperature;BMP_pressure;BME280_temperature;BME280_humidity;BME280_pressure;Samples;Min_cycle;Max_cycle;Signal;HPM_P1;HPM_P2
2022/10/08 00:00:43;;;;;;;;;;;;;;;;;;4981007;28;19937;-79
2022/10/08 00:03:08;;;;;;;;;;;;;;;;;;4979351;28;19913;-78
2022/10/08 00:05:37;;;;;;;;;;;;;;;;;;4982323;28;19921;-79
2022/10/08 00:08:02;;;;;;;;;;;;;;;;;;4981341;28;19914;-79
2022/10/08 00:10:27;;;;;;;;;;;;;;;;;;4982450;28;20091;-79
2022/10/08 00:12:53;;;;;;;;;;;;;;;;;;4981782;28;20222;-79
2022/10/08 00:15:18;;;;;;;;;;;;;;;;;;4977586;28;19915;-79
2022/10/08 00:17:43;;;;;;;;;;;;;;;;;;4982255;28;19949;-79
2022/10/08 00:20:08;;;;;;;;;;;;;;;;;;4982305;28;19960;-79
2022/10/08 00:22:34;;;;;;;;;;;;;;;;;;4982542;28;19977;-79
2022/10/08 00:24:59;;;;;;;;;;;;;;;;;;4977083;28;20194;-79
2022/10/08 00:27:25;;;;;;;;;;;;;;;;;;4981206;28;19921;-79
2022/10/08 00:29:51;;;;;;;;;;;;;;;;;;4982405;28;19940;-79
2022/10/08 00:32:18;;;;;;;;;;;;;;;;;;4982485;28;20264;-79
2022/10/08 00:34:44;;;;;;;;;;;;;;;;;;4982718;28;19948;-79
2022/10/08 00:37:09;;;;;;;;;;;;;;;;;;4982696;28;19969;-79
2022/10/08 00:39:34;;;;;;;;;;;;;;;;;;4982063;28;20013;-79
2022/10/08 00:42:01;;;;;;;;;;;;;;;;;;4981772;28;20142;-79
2022/10/08 00:44:41;;;;;;;;;;;;;;;;;;4982355;28;19984;-79
2022/10/08 00:47:13;;;;;;;;;;;;;;;;;;4982506;28;19918;-79
2022/10/08 00:49:38;;;;;;;;;;;;;;;;;;4982108;28;20199;-79
2022/10/08 00:52:04;;;;;;;;;;;;;;;;;;4979793;28;19928;-79
2022/10/08 00:54:30;;;;;;;;;;;;;;;;;;4977637;28;20106;-79
2022/10/08 00:56:56;;;;;;;;;;;;;;;;;;4981718;28;19917;-79
2022/10/08 00:59:21;;;;;;;;;;;;;;;;;;4982322;28;19910;-80
2022/10/08 01:01:46;;;;;;;;;;;;;;;;;;4982001;28;19961;-79
2022/10/08 01:04:12;;;;;;;;;;;;;;;;;;4981708;28;20141;-80
2022/10/08 01:06:41;;;;;;;;;;;;;;;;;;4980462;28;19921;-79
2022/10/08 01:09:09;;;;;;;;;;;;;;;;;;4981259;28;19921;-79
2022/10/08 01:11:34;;;;;;;;;;;;;;;;;;4981287;28;19922;-80
2022/10/08 01:13:59;;;;;;;;;;;;;;;;;;4981041;28;19914;-79
2022/10/08 01:16:30;;;;;;;;;;;;;;;;;;4982396;28;19968;-79
2022/10/08 01:18:55;;;;;;;;;;;;;;;;;;4980582;28;19937;-79
2022/10/08 01:21:32;;;;;;;;;;;;;;;;;;4981921;28;19989;-79
2022/10/08 01:24:16;;;;;;;;;;;;;;;;;;4982010;28;19925;-80
2022/10/08 01:26:47;;;;;;;;;;;;;;;;;;4981443;28;19910;-79
2022/10/08 01:29:20;;;;;;;;;;;;;;;;;;4982239;28;19989;-79
2022/10/08 01:31:49;;;;;;;;;;;;;;;;;;4982536;28;19906;-80
2022/10/08 01:34:24;;;;;;;;;;;;;;;;;;4982042;28;19910;-79
2022/10/08 01:36:50;;;;;;;;;;;;;;;;;;4981708;28;19910;-79
2022/10/08 01:39:16;;;;;;;;;;;;;;;;;;4977927;28;19910;-79
2022/10/08 01:41:45;;;;;;;;;;;;;;;;;;4981259;28;19933;-80
2022/10/08 01:44:18;;;;;;;;;;;;;;;;;;4981733;28;19925;-79
2022/10/08 01:46:45;;;;;;;;;;;;;;;;;;4981848;28;19918;-80
2022/10/08 01:49:12;;;;;;;;;;;;;;;;;;4981993;28;20138;-79
2022/10/08 01:51:43;;;;;;;;;;;;;;;;;;4980957;28;19914;-79
2022/10/08 01:54:10;;;;;;;;;;;;;;;;;;4981162;28;19926;-78
2022/10/08 01:56:38;;;;;;;;;;;;;;;;;;4981219;28;19929;-81
2022/10/08 01:59:06;;;;;;;;;;;;;;;;;;4981686;28;19949;-79
2022/10/08 02:01:36;;;;;;;;;;;;;;;;;;4981815;28;20618;-81
2022/10/08 02:06:47;;;;;;;;;;;;;;;;;;4984474;28;20011;-79
2022/10/08 02:09:13;;;;;;;;;;;;;;;;;;4984291;28;19981;-79
2022/10/08 02:11:39;;;;;;;;;;;;;;;;;;4983741;28;19914;-79
2022/10/08 02:14:05;;;;;;;;;;;;;;;;;;4983950;28;19922;-79
2022/10/08 02:16:31;;;;;;;;;;;;;;;;;;4985744;28;19914;-80
2022/10/08 02:19:04;;;;;;;;;;;;;;;;;;4985162;28;20154;-79
2022/10/08 02:21:31;;;;;;;;;;;;;;;;;;4985022;28;20221;-79
2022/10/08 02:24:08;;;;;;;;;;;;;;;;;;4984291;28;19914;-79
2022/10/08 02:26:39;;;;;;;;;;;;;;;;;;4984589;28;19914;-80
2022/10/08 02:29:12;;;;;;;;;;;;;;;;;;4984213;28;19926;-79
2022/10/08 02:31:53;;;;;;;;;;;;;;;;;;4983665;28;19918;-79
2022/10/08 02:34:22;;;;;;;;;;;;;;;;;;4984413;28;19914;-79
2022/10/08 02:37:20;;;;;;;;;;;;;;;;;;4984675;28;19917;-79
2022/10/08 02:39:48;;;;;;;;;;;;;;;;;;4949020;28;19914;-79
2022/10/08 02:42:16;;;;;;;;;;;;;;;;;;4984426;28;19938;-79
2022/10/08 02:44:46;;;;;;;;;;;;;;;;;;4984678;28;19948;-79
2022/10/08 02:47:14;;;;;;;;;;;;;;;;;;4984488;28;19957;-79
2022/10/08 02:49:41;;;;;;;;;;;;;;;;;;4984402;28;19914;-79
2022/10/08 02:52:07;;;;;;;;;;;;;;;;;;4979025;28;19910;-79
2022/10/08 02:54:35;;;;;;;;;;;;;;;;;;4978065;28;19914;-79
2022/10/08 02:57:03;;;;;;;;;;;;;;;;;;4984418;28;19921;-79
2022/10/08 02:59:28;;;;;;;;;;;;;;;;;;4984320;28;19989;-80
2022/10/08 03:01:57;;;;;;;;;;;;;;;;;;4984740;28;19917;-79
2022/10/08 03:04:22;;;;;;;;;;;;;;;;;;4982347;28;19949;-79
2022/10/08 03:06:48;;;;;;;;;;;;;;;;;;4984308;28;19925;-79
2022/10/08 03:09:14;;;;;;;;;;;;;;;;;;4983349;28;19973;-80
2022/10/08 03:11:40;;;;;;;;;;;;;;;;;;4984640;28;19910;-79
2022/10/08 03:14:08;;;;;;;;;;;;;;;;;;4982952;28;19926;-79
2022/10/08 03:16:43;;;;;;;;;;;;;;;;;;4982665;28;19910;-80
2022/10/08 03:19:13;;;;;;;;;;;;;;;;;;4984477;28;19910;-79
2022/10/08 03:21:39;;;;;;;;;;;;;;;;;;4984263;28;19957;-79
2022/10/08 03:24:08;;;;;;;;;;;;;;;;;;4984377;28;19961;-79
2022/10/08 03:26:33;;;;;;;;;;;;;;;;;;4983998;28;19910;-79
2022/10/08 03:28:58;;;;;;;;;;;;;;;;;;4984210;28;20210;-79
2022/10/08 03:31:24;;;;;;;;;;;;;;;;;;4984325;28;19914;-80
2022/10/08 03:33:50;;;;;;;;;;;;;;;;;;4984038;28;19929;-79
2022/10/08 03:36:15;;;;;;;;;;;;;;;;;;4983797;28;20217;-79
2022/10/08 03:38:40;;;;;;;;;;;;;;;;;;4983969;28;19910;-79
2022/10/08 03:41:08;;;;;;;;;;;;;;;;;;4982244;28;19918;-79
2022/10/08 03:43:33;;;;;;;;;;;;;;;;;;4983804;28;19980;-80
2022/10/08 03:45:58;;;;;;;;;;;;;;;;;;4983968;28;19933;-80
2022/10/08 03:48:24;;;;;;;;;;;;;;;;;;4983980;28;19929;-79
2022/10/08 03:50:53;;;;;;;;;;;;;;;;;;4983359;28;20102;-78
2022/10/08 03:53:18;;;;;;;;;;;;;;;;;;4980871;28;19969;-79
2022/10/08 03:55:44;;;;;;;;;;;;;;;;;;4983402;28;19914;-80
2022/10/08 03:58:09;;;;;;;;;;;;;;;;;;4983787;28;20110;-79
2022/10/08 04:00:34;;;;;;;;;;;;;;;;;;4983460;28;19910;-79
2022/10/08 04:02:59;;;;;;;;;;;;;;;;;;4983677;28;19914;-79
2022/10/08 04:05:25;;;;;;;;;;;;;;;;;;4983062;28;20021;-79
2022/10/08 04:07:50;;;;;;;;;;;;;;;;;;4983403;28;20233;-79
2022/10/08 04:10:15;;;;;;;;;;;;;;;;;;4983107;28;20130;-79
2022/10/08 04:12:40;;;;;;;;;;;;;;;;;;4983146;28;19917;-80
2022/10/08 04:15:06;;;;;;;;;;;;;;;;;;4983382;28;20216;-79
2022/10/08 04:17:31;;;;;;;;;;;;;;;;;;4983168;28;19981;-79
2022/10/08 04:19:56;;;;;;;;;;;;;;;;;;4983091;28;19924;-80
2022/10/08 04:22:22;;;;;;;;;;;;;;;;;;4983557;28;19918;-79
2022/10/08 04:24:47;;;;;;;;;;;;;;;;;;4982761;28;19910;-80
2022/10/08 04:27:12;;;;;;;;;;;;;;;;;;4982649;28;19917;-80
2022/10/08 04:29:37;;;;;;;;;;;;;;;;;;4983052;28;19910;-78
2022/10/08 04:32:03;;;;;;;;;;;;;;;;;;4982947;28;19940;-79
2022/10/08 04:34:28;;;;;;;;;;;;;;;;;;4982926;28;20249;-80
2022/10/08 04:36:54;;;;;;;;;;;;;;;;;;4982688;28;20102;-79
2022/10/08 04:39:19;;;;;;;;;;;;;;;;;;4982747;28;19929;-80
2022/10/08 04:41:44;;;;;;;;;;;;;;;;;;4981647;28;19961;-79
2022/10/08 04:44:09;;;;;;;;;;;;;;;;;;4982256;28;19926;-79
2022/10/08 04:46:35;;;;;;;;;;;;;;;;;;4981347;28;19994;-79
2022/10/08 04:49:00;;;;;;;;;;;;;;;;;;4982743;28;19925;-79
2022/10/08 04:51:26;;;;;;;;;;;;;;;;;;4981154;28;19910;-80
2022/10/08 04:53:52;;;;;;;;;;;;;;;;;;4982691;28;19910;-79
2022/10/08 04:56:18;;;;;;;;;;;;;;;;;;4982648;28;19950;-79
2022/10/08 04:58:44;;;;;;;;;;;;;;;;;;4982646;28;19976;-79
2022/10/08 05:01:11;;;;;;;;;;;;;;;;;;4982253;28;20197;-79
2022/10/08 05:03:37;;;;;;;;;;;;;;;;;;4982639;28;19906;-79
2022/10/08 05:06:02;;;;;;;;;;;;;;;;;;4982107;28;19910;-79
2022/10/08 05:08:28;;;;;;;;;;;;;;;;;;4982578;28;19917;-79
2022/10/08 05:10:53;;;;;;;;;;;;;;;;;;4982278;28;19921;-80
2022/10/08 05:13:18;;;;;;;;;;;;;;;;;;4982159;28;20241;-80
2022/10/08 05:15:44;;;;;;;;;;;;;;;;;;4982193;28;19921;-79
2022/10/08 05:18:09;;;;;;;;;;;;;;;;;;4982326;28;20085;-79
2022/10/08 05:20:35;;;;;;;;;;;;;;;;;;4980967;28;19917;-79
2022/10/08 05:23:00;;;;;;;;;;;;;;;;;;4981926;28;19910;-79
2022/10/08 05:25:25;;;;;;;;;;;;;;;;;;4982031;28;19933;-79
2022/10/08 05:27:50;;;;;;;;;;;;;;;;;;4982142;28;19948;-79
2022/10/08 05:30:16;;;;;;;;;;;;;;;;;;4982155;28;19921;-80
2022/10/08 05:32:41;;;;;;;;;;;;;;;;;;4981346;28;19910;-79
2022/10/08 05:35:07;;;;;;;;;;;;;;;;;;4976354;28;19973;-79
2022/10/08 05:37:32;;;;;;;;;;;;;;;;;;4982132;28;19922;-79
2022/10/08 05:39:57;;;;;;;;;;;;;;;;;;4984923;28;19913;-79
2022/10/08 05:42:22;;;;;;;;;;;;;;;;;;4985808;28;19951;-79
2022/10/08 05:44:47;;;;;;;;;;;;;;;;;;4986125;28;19913;-79
2022/10/08 05:47:13;;;;;;;;;;;;;;;;;;4984805;28;20340;-79
2022/10/08 05:49:38;;;;;;;;;;;;;;;;;;4985862;28;19932;-80
2022/10/08 05:52:03;;;;;;;;;;;;;;;;;;4985817;28;19910;-80
2022/10/08 05:54:28;;;;;;;;;;;;;;;;;;4985883;28;19906;-79
2022/10/08 05:56:54;;;;;;;;;;;;;;;;;;4985742;28;20199;-79
2022/10/08 05:59:21;;;;;;;;;;;;;;;;;;4981353;28;19977;-80
2022/10/08 06:01:46;;;;;;;;;;;;;;;;;;4985663;28;19906;-79
2022/10/08 06:04:12;;;;;;;;;;;;;;;;;;4985536;28;20202;-79
2022/10/08 06:06:38;;;;;;;;;;;;;;;;;;4985290;28;19921;-79
2022/10/08 06:09:04;;;;;;;;;;;;;;;;;;4985014;28;20352;-79
2022/10/08 06:11:31;;;;;;;;;;;;;;;;;;4985510;28;19910;-80
2022/10/08 06:13:57;;;;;;;;;;;;;;;;;;4983819;28;19921;-79
2022/10/08 06:16:22;;;;;;;;;;;;;;;;;;4985584;28;19957;-79
2022/10/08 06:18:48;;;;;;;;;;;;;;;;;;4985542;28;19909;-79
2022/10/08 06:21:17;;;;;;;;;;;;;;;;;;4985423;28;19910;-79
2022/10/08 06:23:47;;;;;;;;;;;;;;;;;;4985589;28;19910;-79
2022/10/08 06:26:12;;;;;;;;;;;;;;;;;;4981988;28;19978;-79
2022/10/08 06:28:38;;;;;;;;;;;;;;;;;;4985126;28;19914;-79
2022/10/08 06:31:04;;;;;;;;;;;;;;;;;;4985029;28;19921;-79
2022/10/08 06:33:29;;;;;;;;;;;;;;;;;;4982533;28;19914;-79
2022/10/08 06:35:54;;;;;;;;;;;;;;;;;;4983762;28;19945;-79
2022/10/08 06:38:20;;;;;;;;;;;;;;;;;;4985250;28;19960;-79
2022/10/08 06:40:45;;;;;;;;;;;;;;;;;;4981137;28;19940;-79
2022/10/08 06:43:15;;;;;;;;;;;;;;;;;;4985104;28;19922;-79
2022/10/08 06:45:41;;;;;;;;;;;;;;;;;;4983495;28;19976;-79
2022/10/08 06:48:07;;;;;;;;;;;;;;;;;;4985105;28;20098;-80
2022/10/08 06:50:32;;;;;;;;;;;;;;;;;;4983381;28;19917;-79
2022/10/08 06:52:57;;;;;;;;;;;;;;;;;;4981142;28;19918;-79
2022/10/08 06:55:23;;;;;;;;;;;;;;;;;;4984652;28;19914;-79
2022/10/08 06:57:48;;;;;;;;;;;;;;;;;;4984714;28;20084;-79
2022/10/08 07:00:13;;;;;;;;;;;;;;;;;;4984728;28;19926;-79
2022/10/08 07:02:38;;;;;;;;;;;;;;;;;;4984665;28;19921;-81
2022/10/08 07:05:04;;;;;;;;;;;;;;;;;;4983559;28;19921;-81
2022/10/08 07:07:29;;;;;;;;;;;;;;;;;;4984246;28;20281;-81
2022/10/08 07:09:54;;;;;;;;;;;;;;;;;;4984511;28;19914;-81
2022/10/08 07:12:20;;;;;;;;;;;;;;;;;;4984539;28;19910;-79
2022/10/08 07:14:45;;;;;;;;;;;;;;;;;;4984246;28;20210;-80
2022/10/08 07:17:10;;;;;;;;;;;;;;;;;;4984534;28;19912;-81
2022/10/08 07:19:35;;;;;;;;;;;;;;;;;;4984050;28;19914;-81
2022/10/08 07:22:00;;;;;;;;;;;;;;;;;;4984097;28;19910;-81
2022/10/08 07:24:26;;;;;;;;;;;;;;;;;;4984032;28;19921;-81
2022/10/08 07:26:51;;;;;;;;;;;;;;;;;;4982804;28;19910;-81
2022/10/08 07:29:16;;;;;;;;;;;;;;;;;;4984204;28;19956;-81
2022/10/08 07:31:42;;;;;;;;;;;;;;;;;;4984204;28;19928;-81
2022/10/08 07:34:09;;;;;;;;;;;;;;;;;;4982676;28;19921;-81
2022/10/08 07:36:35;;;;;;;;;;;;;;;;;;4983820;28;19947;-81
2022/10/08 07:39:02;;;;;;;;;;;;;;;;;;4982643;28;19926;-82
2022/10/08 07:41:28;;;;;;;;;;;;;;;;;;4983967;28;19914;-81
2022/10/08 07:43:56;;;;;;;;;;;;;;;;;;4983444;28;19914;-81
2022/10/08 07:46:21;;;;;;;;;;;;;;;;;;4974027;28;19969;-81
2022/10/08 07:48:47;;;;;;;;;;;;;;;;;;4976727;28;19969;-82
2022/10/08 07:51:14;;;;;;;;;;;;;;;;;;4983116;28;20258;-81
2022/10/08 07:53:40;;;;;;;;;;;;;;;;;;4981461;28;19918;-81
2022/10/08 07:56:06;;;;;;;;;;;;;;;;;;4983410;28;19941;-82
2022/10/08 07:58:32;;;;;;;;;;;;;;;;;;4982494;28;19914;-81
2022/10/08 08:00:58;;;;;;;;;;;;;;;;;;4981841;28;19997;-82
2022/10/08 08:03:24;;;;;;;;;;;;;;;;;;4982697;28;19921;-81
2022/10/08 08:05:49;;;;;;;;;;;;;;;;;;4981866;28;19914;-81
2022/10/08 08:08:14;;;;;;;;;;;;;;;;;;4983074;28;19936;-81
2022/10/08 08:10:40;;;;;;;;;;;;;;;;;;4981635;28;19910;-82
2022/10/08 08:13:05;;;;;;;;;;;;;;;;;;4976773;28;19961;-82
2022/10/08 08:15:31;;;;;;;;;;;;;;;;;;4982984;28;19925;-81
2022/10/08 08:17:56;;;;;;;;;;;;;;;;;;4982794;28;19909;-81
2022/10/08 08:20:21;;;;;;;;;;;;;;;;;;4982702;28;20218;-81
2022/10/08 08:22:46;;;;;;;;;;;;;;;;;;4980860;28;19949;-79
2022/10/08 08:25:12;;;;;;;;;;;;;;;;;;4982948;28;19952;-81
2022/10/08 08:27:37;;;;;;;;;;;;;;;;;;4983276;28;19917;-81
2022/10/08 08:30:03;;;;;;;;;;;;;;;;;;4982720;28;19921;-81
2022/10/08 08:32:28;;;;;;;;;;;;;;;;;;4981516;28;19914;-81
2022/10/08 08:34:53;;;;;;;;;;;;;;;;;;4981610;28;19917;-81
2022/10/08 08:37:18;;;;;;;;;;;;;;;;;;4982696;28;20106;-81
2022/10/08 08:39:44;;;;;;;;;;;;;;;;;;4979881;28;19917;-81
2022/10/08 08:42:12;;;;;;;;;;;;;;;;;;4982743;28;19913;-80
2022/10/08 08:44:37;;;;;;;;;;;;;;;;;;4982031;28;19914;-79
2022/10/08 08:47:05;;;;;;;;;;;;;;;;;;4976777;28;20104;-78
2022/10/08 08:49:30;;;;;;;;;;;;;;;;;;4974986;28;20158;-79
2022/10/08 08:51:58;;;;;;;;;;;;;;;;;;4974481;28;19925;-78
2022/10/08 08:54:23;;;;;;;;;;;;;;;;;;4974920;28;19942;-79
2022/10/08 08:56:49;;;;;;;;;;;;;;;;;;4977637;28;20118;-79
2022/10/08 08:59:26;;;;;;;;;;;;;;;;;;4980419;28;19967;-79
2022/10/08 09:01:54;;;;;;;;;;;;;;;;;;4981276;28;19918;-79
2022/10/08 09:04:25;;;;;;;;;;;;;;;;;;4981285;28;19910;-78
2022/10/08 09:06:51;;;;;;;;;;;;;;;;;;4980710;28;19918;-78
2022/10/08 09:09:34;;;;;;;;;;;;;;;;;;4981765;28;20252;-78
2022/10/08 09:12:02;;;;;;;;;;;;;;;;;;4981197;28;19961;-76
2022/10/08 09:14:27;;;;;;;;;;;;;;;;;;4979835;28;19910;-81
2022/10/08 09:16:53;;;;;;;;;;;;;;;;;;4977448;28;20221;-78
2022/10/08 09:19:19;;;;;;;;;;;;;;;;;;4982254;28;20395;-79
2022/10/08 09:21:44;;;;;;;;;;;;;;;;;;4981408;28;19914;-78
2022/10/08 09:24:09;;;;;;;;;;;;;;;;;;4981976;28;19918;-79
2022/10/08 09:26:35;;;;;;;;;;;;;;;;;;4981979;28;19949;-79
2022/10/08 09:29:01;;;;;;;;;;;;;;;;;;4982466;28;19925;-80
2022/10/08 09:31:33;;;;;;;;;;;;;;;;;;4982430;28;19978;-81
2022/10/08 09:34:05;;;;;;;;;;;;;;;;;;4982121;28;19993;-78
2022/10/08 09:36:41;;;;;;;;;;;;;;;;;;4981419;28;19913;-81
2022/10/08 09:39:14;;;;;;;;;;;;;;;;;;4981313;28;19933;-78
2022/10/08 09:41:40;;;;;;;;;;;;;;;;;;4981995;28;19938;-81
2022/10/08 09:44:10;;;;;;;;;;;;;;;;;;4981327;28;19914;-82
2022/10/08 09:46:35;;;;;;;;;;;;;;;;;;4981897;28;19914;-81
2022/10/08 09:49:20;;;;;;;;;;;;;;;;;;4981839;28;19921;-81
2022/10/08 09:51:45;;;;;;;;;;;;;;;;;;4981266;28;19981;-81
2022/10/08 09:54:12;;;;;;;;;;;;;;;;;;4981765;28;19954;-81
2022/10/08 09:56:37;;;;;;;;;;;;;;;;;;4981500;28;19910;-82
2022/10/08 09:59:03;;;;;;;;;;;;;;;;;;4980815;28;19957;-78
2022/10/08 10:01:30;;;;;;;;;;;;;;;;;;4981973;28;19910;-79
2022/10/08 10:03:59;;;;;;;;;;;;;;;;;;4981503;28;19990;-79
2022/10/08 10:06:29;;;;;;;;;;;;;;;;;;4981428;28;20054;-78
2022/10/08 10:09:06;;;;;;;;;;;;;;;;;;4980733;28;19926;-79
2022/10/08 10:11:40;;;;;;;;;;;;;;;;;;4976007;28;19925;-80
2022/10/08 10:14:17;;;;;;;;;;;;;;;;;;4976098;28;19960;-80
2022/10/08 10:16:43;;;;;;;;;;;;;;;;;;4981661;28;19929;-80
2022/10/08 10:19:19;;;;;;;;;;;;;;;;;;4981876;28;19920;-79
2022/10/08 10:22:14;;;;;;;;;;;;;;;;;;4978649;28;20005;-81
2022/10/08 10:24:54;;;;;;;;;;;;;;;;;;4969726;28;20138;-80
2022/10/08 10:27:28;;;;;;;;;;;;;;;;;;4980649;28;20149;-81
2022/10/08 10:30:14;;;;;;;;;;;;;;;;;;4985447;28;19981;-80
2022/10/08 10:32:43;;;;;;;;;;;;;;;;;;4985918;28;19914;-80
2022/10/08 10:35:18;;;;;;;;;;;;;;;;;;4984520;28;19933;-79
2022/10/08 10:37:45;;;;;;;;;;;;;;;;;;4985229;28;19913;-80
2022/10/08 10:40:46;;;;;;;;;;;;;;;;;;4985090;28;19917;-79
2022/10/08 10:43:11;;;;;;;;;;;;;;;;;;4942870;29;20103;-81
2022/10/08 10:45:38;;;;;;;;;;;;;;;;;;4971598;28;19917;-78
2022/10/08 10:48:04;;;;;;;;;;;;;;;;;;4984864;28;19941;-79
2022/10/08 10:50:46;;;;;;;;;;;;;;;;;;4984544;28;20202;-79
2022/10/08 10:53:17;;;;;;;;;;;;;;;;;;4984872;28;20145;-80
2022/10/08 10:55:50;;;;;;;;;;;;;;;;;;4984674;28;20217;-80
2022/10/08 10:58:21;;;;;;;;;;;;;;;;;;4984711;28;19910;-80
2022/10/08 11:01:05;;;;;;;;;;;;;;;;;;4984574;28;19941;-81
2022/10/08 11:03:45;;;;;;;;;;;;;;;;;;4980769;28;19913;-81
2022/10/08 11:06:13;;;;;;;;;;;;;;;;;;4983986;28;19914;-80
2022/10/08 11:08:43;;;;;;;;;;;;;;;;;;4984612;28;20007;-80
2022/10/08 11:11:15;;;;;;;;;;;;;;;;;;4984713;28;19917;-81
2022/10/08 11:13:40;;;;;;;;;;;;;;;;;;4984267;28;19921;-82
2022/10/08 11:16:25;;;;;;;;;;;;;;;;;;4983670;28;19914;-81
2022/10/08 11:18:52;;;;;;;;;;;;;;;;;;4984460;28;20029;-82
2022/10/08 11:21:23;;;;;;;;;;;;;;;;;;4978974;28;19981;-83
2022/10/08 11:23:54;;;;;;;;;;;;;;;;;;4978348;28;20125;-81
2022/10/08 11:26:29;;;;;;;;;;;;;;;;;;4981344;28;20234;-80
2022/10/08 11:29:00;;;;;;;;;;;;;;;;;;4984363;28;19914;-80
2022/10/08 11:31:33;;;;;;;;;;;;;;;;;;4984070;28;19921;-81
2022/10/08 11:33:59;;;;;;;;;;;;;;;;;;4984093;28;19917;-81
2022/10/08 11:36:42;;;;;;;;;;;;;;;;;;4983378;28;20199;-81
2022/10/08 11:39:17;;;;;;;;;;;;;;;;;;4984129;28;19918;-82
2022/10/08 11:41:42;;;;;;;;;;;;;;;;;;4982708;28;19937;-81
2022/10/08 11:44:08;;;;;;;;;;;;;;;;;;4983825;28;19964;-81
2022/10/08 11:46:35;;;;;;;;;;;;;;;;;;4984152;28;19993;-81
2022/10/08 11:49:00;;;;;;;;;;;;;;;;;;4983905;28;19925;-81
2022/10/08 11:51:26;;;;;;;;;;;;;;;;;;4982506;28;19905;-81
2022/10/08 11:54:04;;;;;;;;;;;;;;;;;;4983484;28;19922;-82
2022/10/08 11:56:30;;;;;;;;;;;;;;;;;;4982369;28;20146;-80
2022/10/08 11:58:56;;;;;;;;;;;;;;;;;;4981594;28;19913;-80
2022/10/08 12:01:31;;;;;;;;;;;;;;;;;;4983389;28;19914;-82
2022/10/08 12:04:03;;;;;;;;;;;;;;;;;;4982956;28;19952;-80
2022/10/08 12:06:32;;;;;;;;;;;;;;;;;;4982821;28;19914;-81
2022/10/08 12:08:59;;;;;;;;;;;;;;;;;;4982618;28;20217;-81
2022/10/08 12:11:39;;;;;;;;;;;;;;;;;;4977789;28;19965;-81
2022/10/08 12:14:13;;;;;;;;;;;;;;;;;;4976410;28;19960;-81
2022/10/08 12:16:47;;;;;;;;;;;;;;;;;;4982921;28;19925;-80
2022/10/08 12:19:31;;;;;;;;;;;;;;;;;;4982928;28;19922;-80
2022/10/08 12:21:56;;;;;;;;;;;;;;;;;;4983285;28;19910;-78
2022/10/08 12:24:47;;;;;;;;;;;;;;;;;;4982069;28;19978;-82
2022/10/08 12:27:15;;;;;;;;;;;;;;;;;;4978310;28;20206;-81
2022/10/08 12:29:53;;;;;;;;;;;;;;;;;;4982330;28;19981;-81
2022/10/08 12:32:19;;;;;;;;;;;;;;;;;;4981660;28;20454;-81
2022/10/08 12:34:44;;;;;;;;;;;;;;;;;;4982858;28;19917;-81
2022/10/08 12:37:11;;;;;;;;;;;;;;;;;;4982651;28;19940;-80
2022/10/08 12:39:39;;;;;;;;;;;;;;;;;;4982995;28;19948;-80
2022/10/08 12:42:43;;;;;;;;;;;;;;;;;;4982845;28;19926;-80
2022/10/08 12:45:14;;;;;;;;;;;;;;;;;;4928668;29;19950;-81
2022/10/08 12:47:54;;;;;;;;;;;;;;;;;;4917139;29;19999;-82
2022/10/08 12:50:27;;;;;;;;;;;;;;;;;;4958881;28;19925;-81
2022/10/08 12:52:52;;;;;;;;;;;;;;;;;;4982863;28;20202;-81
2022/10/08 12:55:21;;;;;;;;;;;;;;;;;;4982215;28;19988;-81
2022/10/08 12:57:47;;;;;;;;;;;;;;;;;;4982478;28;20221;-81
2022/10/08 13:00:27;;;;;;;;;;;;;;;;;;4982638;28;20102;-81
2022/10/08 13:03:00;;;;;;;;;;;;;;;;;;4982358;28;19981;-80
2022/10/08 13:05:27;;;;;;;;;;;;;;;;;;4982357;28;20053;-81
2022/10/08 13:07:52;;;;;;;;;;;;;;;;;;4982520;28;19910;-81
2022/10/08 13:10:20;;;;;;;;;;;;;;;;;;4982439;28;19917;-84
2022/10/08 13:13:01;;;;;;;;;;;;;;;;;;4982812;28;20037;-81
2022/10/08 13:15:27;;;;;;;;;;;;;;;;;;4982134;28;20230;-82
2022/10/08 13:17:52;;;;;;;;;;;;;;;;;;4982392;28;19917;-81
2022/10/08 13:20:19;;;;;;;;;;;;;;;;;;4982182;28;19910;-81
2022/10/08 13:22:45;;;;;;;;;;;;;;;;;;4982241;28;19910;-81
2022/10/08 13:25:29;;;;;;;;;;;;;;;;;;4982358;28;20187;-81
2022/10/08 13:28:14;;;;;;;;;;;;;;;;;;4978942;28;19910;-81
2022/10/08 13:30:39;;;;;;;;;;;;;;;;;;4982498;28;20064;-81
2022/10/08 13:33:10;;;;;;;;;;;;;;;;;;4982294;28;20037;-81
2022/10/08 13:35:35;;;;;;;;;;;;;;;;;;4980634;28;19932;-81
2022/10/08 13:38:02;;;;;;;;;;;;;;;;;;4982283;28;19910;-81
2022/10/08 13:40:27;;;;;;;;;;;;;;;;;;4977588;28;20220;-83
2022/10/08 13:42:54;;;;;;;;;;;;;;;;;;4975218;28;20343;-82
2022/10/08 13:45:23;;;;;;;;;;;;;;;;;;4982205;28;19949;-82
2022/10/08 13:47:49;;;;;;;;;;;;;;;;;;4978360;28;19914;-84
2022/10/08 13:50:15;;;;;;;;;;;;;;;;;;4970068;28;19921;-80
2022/10/08 13:52:42;;;;;;;;;;;;;;;;;;4977283;28;19916;-82
2022/10/08 13:55:22;;;;;;;;;;;;;;;;;;4980703;28;19952;-80
2022/10/08 13:57:47;;;;;;;;;;;;;;;;;;4978984;28;19949;-83
2022/10/08 14:00:13;;;;;;;;;;;;;;;;;;4984565;28;20214;-79
2022/10/08 14:02:39;;;;;;;;;;;;;;;;;;4980088;28;20242;-79
2022/10/08 14:05:04;;;;;;;;;;;;;;;;;;4978938;28;19933;-82
2022/10/08 14:07:31;;;;;;;;;;;;;;;;;;4985187;28;19985;-83
2022/10/08 14:09:58;;;;;;;;;;;;;;;;;;4983841;28;20094;-82
2022/10/08 14:12:28;;;;;;;;;;;;;;;;;;4985324;28;19932;-81
2022/10/08 14:14:54;;;;;;;;;;;;;;;;;;4985213;28;20257;-83
2022/10/08 14:17:20;;;;;;;;;;;;;;;;;;4985356;28;19917;-84
2022/10/08 14:19:45;;;;;;;;;;;;;;;;;;4984807;28;19910;-83
2022/10/08 14:22:11;;;;;;;;;;;;;;;;;;4982493;28;19917;-83
2022/10/08 14:24:36;;;;;;;;;;;;;;;;;;4985049;28;19945;-84
2022/10/08 14:27:01;;;;;;;;;;;;;;;;;;4985093;28;19964;-81
2022/10/08 14:29:27;;;;;;;;;;;;;;;;;;4984658;28;20113;-82
2022/10/08 14:31:52;;;;;;;;;;;;;;;;;;4984470;28;19952;-83
2022/10/08 14:34:18;;;;;;;;;;;;;;;;;;4979312;28;20170;-82
2022/10/08 14:36:43;;;;;;;;;;;;;;;;;;4984084;28;19941;-83
2022/10/08 14:39:11;;;;;;;;;;;;;;;;;;4983063;28;20095;-82
2022/10/08 14:41:39;;;;;;;;;;;;;;;;;;4984707;28;19941;-83
2022/10/08 14:44:05;;;;;;;;;;;;;;;;;;4972168;28;19924;-81
2022/10/08 14:46:30;;;;;;;;;;;;;;;;;;4969635;28;19917;-82
2022/10/08 14:48:56;;;;;;;;;;;;;;;;;;4981882;28;20262;-82
2022/10/08 14:51:21;;;;;;;;;;;;;;;;;;4984290;28;19910;-83
2022/10/08 14:53:46;;;;;;;;;;;;;;;;;;4981942;28;19942;-83
2022/10/08 14:56:11;;;;;;;;;;;;;;;;;;4984640;28;19917;-83
2022/10/08 14:58:37;;;;;;;;;;;;;;;;;;4984530;28;19918;-84
2022/10/08 15:01:02;;;;;;;;;;;;;;;;;;4984261;28;19917;-83
2022/10/08 15:03:27;;;;;;;;;;;;;;;;;;4978685;28;19929;-83
2022/10/08 15:05:53;;;;;;;;;;;;;;;;;;4984035;28;19917;-81
2022/10/08 15:08:18;;;;;;;;;;;;;;;;;;4984243;28;19977;-81
2022/10/08 15:10:44;;;;;;;;;;;;;;;;;;4983369;28;20102;-82
2022/10/08 15:13:09;;;;;;;;;;;;;;;;;;4984047;28;19937;-82
2022/10/08 15:15:38;;;;;;;;;;;;;;;;;;4984128;28;20102;-81
2022/10/08 15:18:03;;;;;;;;;;;;;;;;;;4980497;28;20098;-82
2022/10/08 15:20:33;;;;;;;;;;;;;;;;;;4983960;28;20212;-82
2022/10/08 15:22:58;;;;;;;;;;;;;;;;;;4984082;28;19957;-81
2022/10/08 15:25:23;;;;;;;;;;;;;;;;;;4983401;28;19973;-80
2022/10/08 15:27:48;;;;;;;;;;;;;;;;;;4983909;28;20099;-80
2022/10/08 15:30:14;;;;;;;;;;;;;;;;;;4978824;28;20153;-81
2022/10/08 15:32:39;;;;;;;;;;;;;;;;;;4983635;28;19932;-81
2022/10/08 15:35:04;;;;;;;;;;;;;;;;;;4983612;28;20000;-81
2022/10/08 15:37:29;;;;;;;;;;;;;;;;;;4975361;28;19924;-80
2022/10/08 15:39:55;;;;;;;;;;;;;;;;;;4981219;28;20222;-83
2022/10/08 15:42:20;;;;;;;;;;;;;;;;;;4979997;28;20287;-80
2022/10/08 15:44:45;;;;;;;;;;;;;;;;;;4980486;28;19914;-81
2022/10/08 15:47:11;;;;;;;;;;;;;;;;;;4998118;28;19968;-78
2022/10/08 15:49:40;;;;;;;;;;;;;;;;;;4982093;28;19914;-80
2022/10/08 15:52:07;;;;;;;;;;;;;;;;;;4981322;28;19984;-78
2022/10/08 15:54:36;;;;;;;;;;;;;;;;;;4982008;28;20053;-81
2022/10/08 15:57:01;;;;;;;;;;;;;;;;;;4983226;28;20004;-82
2022/10/08 15:59:26;;;;;;;;;;;;;;;;;;4983166;28;20177;-82
2022/10/08 16:01:54;;;;;;;;;;;;;;;;;;4980421;28;19945;-82
2022/10/08 16:04:19;;;;;;;;;;;;;;;;;;4980571;28;19918;-81
2022/10/08 16:06:45;;;;;;;;;;;;;;;;;;4977363;28;19997;-82
2022/10/08 16:09:14;;;;;;;;;;;;;;;;;;4982654;28;19922;-81
2022/10/08 16:11:40;;;;;;;;;;;;;;;;;;4983140;28;19925;-82
2022/10/08 16:14:08;;;;;;;;;;;;;;;;;;4983022;28;19922;-81
2022/10/08 16:16:34;;;;;;;;;;;;;;;;;;4982771;28;19928;-81
2022/10/08 16:19:00;;;;;;;;;;;;;;;;;;4982964;28;19957;-81
2022/10/08 16:21:27;;;;;;;;;;;;;;;;;;4982592;28;19910;-84
2022/10/08 16:23:52;;;;;;;;;;;;;;;;;;4982779;28;19977;-81
2022/10/08 16:26:21;;;;;;;;;;;;;;;;;;4983099;28;20142;-81
2022/10/08 16:28:50;;;;;;;;;;;;;;;;;;4982258;28;19917;-80
2022/10/08 16:31:16;;;;;;;;;;;;;;;;;;4982696;28;19928;-82
2022/10/08 16:33:41;;;;;;;;;;;;;;;;;;4983198;28;19914;-81
2022/10/08 16:36:07;;;;;;;;;;;;;;;;;;4982412;28;19914;-81
2022/10/08 16:38:33;;;;;;;;;;;;;;;;;;4982337;28;20191;-82
2022/10/08 16:41:11;;;;;;;;;;;;;;;;;;4982456;28;19989;-81
2022/10/08 16:43:36;;;;;;;;;;;;;;;;;;4978633;28;20094;-81
2022/10/08 16:46:01;;;;;;;;;;;;;;;;;;4982820;28;20098;-81
2022/10/08 16:48:26;;;;;;;;;;;;;;;;;;4981285;28;19910;-81
2022/10/08 16:50:52;;;;;;;;;;;;;;;;;;4982183;28;20174;-82
2022/10/08 16:53:17;;;;;;;;;;;;;;;;;;4980820;28;19909;-81